Time;durP1;ratioP1;P1;durP2;ratioP2;P2;SDS_P1;SDS_P2;PMS_P1;PMS_P2;Temp;Humidity;BMP_temperature;BMP_pressure;BME280_temperature;BME280_humidity;BME280_pressure;Samples;Min_cycle;Max_cycle;Signal;HPM_P1;HPM_P2
2022/09/17 00:01:20;;;;;;;0.40;0.40;;;24.30;56.60;;;;;;5050761;28;20072;-62
2022/09/17 00:03:51;;;;;;;;;;;24.30;56.60;;;;;;5033805;28;20492;-61
2022/09/17 00:06:19;;;;;;;1.17;1.08;;;24.30;56.60;;;;;;5028928;28;19920;-62
2022/09/17 00:08:50;;;;;;;2.08;1.25;;;24.30;56.60;;;;;;5051559;28;20056;-61
2022/09/17 00:11:21;;;;;;;1.02;0.90;;;24.30;56.60;;;;;;5051157;28;20060;-61
2022/09/17 00:13:50;;;;;;;0.80;0.80;;;24.30;57.10;;;;;;5051226;28;20053;-61
2022/09/17 00:16:28;;;;;;;0.60;0.60;;;24.30;56.60;;;;;;5051048;28;20052;-62
2022/09/17 00:18:56;;;;;;;1.08;0.70;;;24.30;56.60;;;;;;5034516;28;20118;-61
2022/09/17 00:21:24;;;;;;;0.57;0.57;;;24.30;56.50;;;;;;5051473;28;20049;-61
2022/09/17 00:23:56;;;;;;;0.93;0.93;;;24.30;56.50;;;;;;5051577;28;20060;-61
2022/09/17 00:26:24;;;;;;;1.05;1.00;;;24.30;56.50;;;;;;5051058;28;20485;-62
2022/09/17 00:28:52;;;;;;;0.90;0.90;;;24.30;57.00;;;;;;5050941;28;20055;-61
2022/09/17 00:31:20;;;;;;;0.50;0.50;;;24.30;56.40;;;;;;5017030;28;20150;-62
2022/09/17 00:33:48;;;;;;;2.83;0.70;;;24.30;56.40;;;;;;5033097;28;20075;-61
2022/09/17 00:36:15;;;;;;;1.20;0.70;;;24.30;56.40;;;;;;5050249;28;20433;-61
2022/09/17 00:38:43;;;;;;;0.98;0.80;;;24.30;56.40;;;;;;5045854;28;20144;-61
2022/09/17 00:41:10;;;;;;;0.70;0.70;;;24.30;56.30;;;;;;5051198;28;20501;-61
2022/09/17 00:43:56;;;;;;;0.70;0.70;;;24.30;56.40;;;;;;5050344;28;20517;-62
2022/09/17 00:46:39;;;;;;;0.73;0.70;;;24.30;56.40;;;;;;5033550;28;20073;-62
2022/09/17 00:49:20;;;;;;;2.47;0.73;;;24.30;56.40;;;;;;5032903;28;20131;-61
2022/09/17 00:52:00;;;;;;;1.05;0.77;;;24.30;56.90;;;;;;5050032;28;20477;-61
2022/09/17 00:54:28;;;;;;;0.90;0.90;;;24.30;56.40;;;;;;5050202;28;20051;-62
2022/09/17 00:56:56;;;;;;;0.80;0.80;;;24.30;56.40;;;;;;5050690;28;20478;-61
2022/09/17 00:59:24;;;;;;;0.70;0.70;;;24.30;56.40;;;;;;5050427;28;20474;-61
2022/09/17 01:01:51;;;;;;;0.60;0.60;;;24.30;56.40;;;;;;5049410;28;20072;-61
2022/09/17 01:04:22;;;;;;;1.17;1.08;;;24.30;56.40;;;;;;5032423;28;20057;-61
2022/09/17 01:07:29;;;;;;;0.73;0.73;;;24.30;56.40;;;;;;5050770;28;20052;-61
2022/09/17 01:10:03;;;;;;;0.70;0.70;;;24.30;56.40;;;;;;5033858;28;20051;-61
2022/09/17 01:12:56;;;;;;;0.73;0.52;;;24.30;56.40;;;;;;5050265;28;20052;-62
2022/09/17 01:15:50;;;;;;;0.60;0.60;;;24.30;56.40;;;;;;5050046;28;20049;-61
2022/09/17 01:18:44;;;;;;;2.63;1.02;;;24.30;56.40;;;;;;5049669;28;20107;-61
2022/09/17 01:21:47;;;;;;;0.50;0.50;;;24.30;56.40;;;;;;5049695;28;20049;-61
2022/09/17 01:24:50;;;;;;;1.48;0.85;;;24.20;56.40;;;;;;5037586;28;20049;-61
2022/09/17 01:27:47;;;;;;;0.80;0.80;;;24.20;56.40;;;;;;5049690;28;20052;-61
2022/09/17 01:30:39;;;;;;;0.70;0.70;;;24.20;56.40;;;;;;5049825;28;20045;-61
2022/09/17 01:33:23;;;;;;;0.65;0.65;;;24.30;56.40;;;;;;5049408;28;20408;-61
2022/09/17 01:36:02;;;;;;;0.80;0.80;;;24.20;56.40;;;;;;5050027;28;20045;-61
2022/09/17 01:38:50;;;;;;;0.80;0.77;;;24.20;56.40;;;;;;5049781;28;20048;-61
2022/09/17 01:41:43;;;;;;;0.85;0.80;;;24.20;56.40;;;;;;5049898;28;20052;-61
2022/09/17 01:44:23;;;;;;;0.60;0.60;;;24.20;56.40;;;;;;5045992;28;20041;-61
2022/09/17 01:46:55;;;;;;;1.02;0.93;;;24.20;56.40;;;;;;5049580;28;20493;-61
2022/09/17 01:49:24;;;;;;;0.65;0.65;;;24.20;56.40;;;;;;5049271;28;20124;-61
2022/09/17 01:51:54;;;;;;;0.38;0.38;;;24.20;56.40;;;;;;5049255;28;22011;-62
2022/09/17 01:54:34;;;;;;;0.95;0.60;;;24.20;56.40;;;;;;5049286;28;20043;-61
2022/09/17 01:57:32;;;;;;;0.77;0.77;;;24.20;56.90;;;;;;5049393;28;20049;-61
2022/09/17 02:00:10;;;;;;;0.68;0.55;;;24.20;56.40;;;;;;5034092;28;20052;-61
2022/09/17 02:03:00;;;;;;;0.57;0.57;;;24.20;56.90;;;;;;5031496;28;20053;-61
2022/09/17 02:05:36;;;;;;;0.75;0.73;;;24.20;56.40;;;;;;5049012;28;20056;-61
2022/09/17 02:08:24;;;;;;;0.57;0.57;;;24.20;56.40;;;;;;5049074;28;20121;-61
2022/09/17 02:10:59;;;;;;;1.25;0.80;;;24.20;56.40;;;;;;5049264;28;20489;-61
2022/09/17 02:13:53;;;;;;;0.60;0.50;;;24.20;56.30;;;;;;5047086;28;20060;-61
2022/09/17 02:16:31;;;;;;;0.57;0.57;;;24.20;56.30;;;;;;5048962;28;20045;-61
2022/09/17 02:19:23;;;;;;;0.70;0.70;;;24.20;56.20;;;;;;5048750;28;20041;-61
2022/09/17 02:22:26;;;;;;;0.70;0.70;;;24.20;56.20;;;;;;5049296;28;20048;-61
2022/09/17 02:25:26;;;;;;;2.70;1.00;;;24.20;56.70;;;;;;5048417;28;20136;-61
2022/09/17 02:28:18;;;;;;;0.60;0.60;;;24.20;56.20;;;;;;5048870;28;20592;-61
2022/09/17 02:30:45;;;;;;;1.05;0.77;;;24.20;56.10;;;;;;5048602;28;20286;-61
2022/09/17 02:33:14;;;;;;;0.60;0.60;;;24.20;56.10;;;;;;5048324;28;20053;-61
2022/09/17 02:35:43;;;;;;;0.70;0.70;;;24.20;56.10;;;;;;5031160;28;20045;-61
2022/09/17 02:38:10;;;;;;;2.80;0.80;;;24.20;56.10;;;;;;5048092;28;20059;-61
2022/09/17 02:40:47;;;;;;;0.70;0.60;;;24.20;56.10;;;;;;5048255;28;20088;-61
2022/09/17 02:43:37;;;;;;;0.68;0.68;;;24.30;56.10;;;;;;5048174;28;20048;-61
2022/09/17 02:46:29;;;;;;;0.80;0.80;;;24.20;56.00;;;;;;5043645;28;20064;-62
2022/09/17 02:49:36;;;;;;;0.60;0.60;;;24.20;56.00;;;;;;5031990;28;20068;-62
2022/09/17 02:52:26;;;;;;;0.88;0.60;;;24.20;56.00;;;;;;5017360;28;20131;-61
2022/09/17 02:55:33;;;;;;;0.82;0.70;;;24.20;56.10;;;;;;5048239;28;20049;-61
2022/09/17 02:58:20;;;;;;;0.50;0.50;;;24.20;56.00;;;;;;5048310;28;20048;-61
2022/09/17 03:00:48;;;;;;;0.88;0.68;;;24.20;56.10;;;;;;5048028;28;20053;-62
2022/09/17 03:03:26;;;;;;;0.65;0.65;;;24.20;56.10;;;;;;5030117;28;20095;-61
2022/09/17 03:05:55;;;;;;;0.57;0.57;;;24.20;56.10;;;;;;5048216;28;20049;-62
2022/09/17 03:08:29;;;;;;;0.93;0.50;;;24.20;56.10;;;;;;5048324;28;20041;-62
2022/09/17 03:10:56;;;;;;;0.75;0.75;;;24.20;56.10;;;;;;5048447;28;20507;-61
2022/09/17 03:13:24;;;;;;;0.50;0.50;;;24.20;56.10;;;;;;5047801;28;20045;-61
2022/09/17 03:15:51;;;;;;;0.63;0.63;;;24.20;56.10;;;;;;5048352;28;20053;-61
2022/09/17 03:18:18;;;;;;;0.68;0.68;;;24.20;56.10;;;;;;5025739;28;20053;-61
2022/09/17 03:20:45;;;;;;;0.70;0.70;;;24.20;56.10;;;;;;5047998;28;20052;-61
2022/09/17 03:23:12;;;;;;;1.05;0.73;;;24.20;56.10;;;;;;5048129;28;20045;-61
2022/09/17 03:25:39;;;;;;;0.43;0.40;;;24.20;56.10;;;;;;5050852;28;20424;-61
2022/09/17 03:28:06;;;;;;;0.65;0.60;;;24.20;56.10;;;;;;5054419;28;20045;-61
2022/09/17 03:30:34;;;;;;;0.60;0.60;;;24.10;56.00;;;;;;5054293;28;20056;-61
2022/09/17 03:33:01;;;;;;;0.77;0.70;;;24.20;56.10;;;;;;5054222;28;20060;-61
2022/09/17 03:35:28;;;;;;;0.75;0.75;;;24.20;56.10;;;;;;5054696;28;20353;-61
2022/09/17 03:37:55;;;;;;;0.88;0.70;;;24.10;56.10;;;;;;5036570;28;20056;-62
2022/09/17 03:40:22;;;;;;;0.60;0.60;;;24.10;56.10;;;;;;5054360;28;20045;-61
2022/09/17 03:42:49;;;;;;;0.40;0.40;;;24.10;56.00;;;;;;5036961;28;20440;-61
2022/09/17 03:45:16;;;;;;;0.70;0.68;;;24.10;56.00;;;;;;5036335;28;20080;-61
2022/09/17 03:47:45;;;;;;;0.50;0.50;;;24.10;56.00;;;;;;5054687;28;20091;-61
2022/09/17 03:50:12;;;;;;;0.60;0.60;;;24.20;56.10;;;;;;5049861;28;20297;-61
2022/09/17 03:52:41;;;;;;;0.77;0.77;;;24.20;56.10;;;;;;5054656;28;20078;-61
2022/09/17 03:55:09;;;;;;;1.48;0.65;;;24.10;56.00;;;;;;5036556;28;20044;-62
2022/09/17 03:57:36;;;;;;;0.75;0.75;;;24.10;56.00;;;;;;5054071;28;20045;-61
2022/09/17 04:00:05;;;;;;;0.43;0.43;;;24.20;56.10;;;;;;5054875;28;20582;-61
2022/09/17 04:02:33;;;;;;;0.90;0.75;;;24.10;56.10;;;;;;5053712;28;20485;-61
2022/09/17 04:05:00;;;;;;;0.70;0.70;;;24.10;56.10;;;;;;5036607;28;20052;-61
2022/09/17 04:07:27;;;;;;;0.43;0.43;;;24.20;56.10;;;;;;5036015;28;20064;-61
2022/09/17 04:09:54;;;;;;;0.60;0.60;;;24.20;56.10;;;;;;5054267;28;20397;-61
2022/09/17 04:12:21;;;;;;;0.45;0.45;;;24.10;56.00;;;;;;5054773;28;20045;-61
2022/09/17 04:14:48;;;;;;;0.50;0.50;;;24.10;56.00;;;;;;5054104;28;20049;-61
2022/09/17 04:17:17;;;;;;;0.50;0.50;;;24.20;56.60;;;;;;5036661;28;20060;-61
2022/09/17 04:19:44;;;;;;;0.50;0.50;;;24.20;56.00;;;;;;5054208;28;20516;-61
2022/09/17 04:22:11;;;;;;;0.40;0.40;;;24.20;56.00;;;;;;5049658;28;20064;-61
2022/09/17 04:24:38;;;;;;;1.13;0.60;;;24.20;56.00;;;;;;5053795;28;20538;-61
2022/09/17 04:27:05;;;;;;;0.75;0.75;;;24.20;55.90;;;;;;5053419;28;20056;-61
2022/09/17 04:29:33;;;;;;;0.30;0.30;;;24.20;55.90;;;;;;5036858;28;20056;-61
2022/09/17 04:32:00;;;;;;;0.98;0.77;;;24.20;55.90;;;;;;5053131;28;20433;-62
2022/09/17 04:34:28;;;;;;;0.43;0.43;;;24.20;55.90;;;;;;5053717;28;20052;-61
2022/09/17 04:36:55;;;;;;;0.47;0.47;;;24.20;55.80;;;;;;5033532;28;20049;-61
2022/09/17 04:39:22;;;;;;;0.47;0.47;;;24.20;55.80;;;;;;5050682;28;20266;-61
2022/09/17 04:41:49;;;;;;;0.40;0.40;;;24.20;55.90;;;;;;5051032;28;20060;-61
2022/09/17 04:44:16;;;;;;;0.57;0.57;;;24.20;55.90;;;;;;5033065;28;20048;-61
2022/09/17 04:46:43;;;;;;;0.75;0.50;;;24.20;56.40;;;;;;5050206;28;20045;-61
2022/09/17 04:49:11;;;;;;;0.52;0.50;;;24.20;55.90;;;;;;5050749;28;20049;-62
2022/09/17 04:51:38;;;;;;;0.43;0.40;;;24.20;55.90;;;;;;5049862;28;20059;-61
2022/09/17 04:54:05;;;;;;;1.15;0.88;;;24.20;55.90;;;;;;5050804;28;20053;-62
2022/09/17 04:56:33;;;;;;;0.45;0.40;;;24.20;55.80;;;;;;5044867;28;20050;-61
2022/09/17 04:59:00;;;;;;;0.35;0.35;;;24.20;55.80;;;;;;5050541;28;20053;-61
2022/09/17 05:01:27;;;;;;;0.40;0.40;;;24.20;55.80;;;;;;5050383;28;20048;-61
2022/09/17 05:03:54;;;;;;;0.52;0.52;;;24.20;55.80;;;;;;5050644;28;20049;-61
2022/09/17 05:06:21;;;;;;;0.77;0.73;;;24.20;55.70;;;;;;5050943;28;20386;-61
2022/09/17 05:08:49;;;;;;;0.50;0.50;;;24.20;55.70;;;;;;5049682;28;20410;-61
2022/09/17 05:11:16;;;;;;;0.85;0.63;;;24.20;55.70;;;;;;5050402;28;20041;-61
2022/09/17 05:13:43;;;;;;;0.90;0.90;;;24.20;55.70;;;;;;5050257;28;20049;-61
2022/09/17 05:16:10;;;;;;;0.30;0.30;;;24.10;55.70;;;;;;5049899;28;20048;-61
2022/09/17 05:18:37;;;;;;;0.60;0.60;;;24.10;55.90;;;;;;5050355;28;20056;-61
2022/09/17 05:21:05;;;;;;;0.38;0.38;;;24.10;56.00;;;;;;5049396;28;20041;-61
2022/09/17 05:23:32;;;;;;;0.52;0.50;;;24.10;56.00;;;;;;5050087;28;20045;-61
2022/09/17 05:26:00;;;;;;;0.40;0.40;;;24.10;56.10;;;;;;5049356;28;20045;-61
2022/09/17 05:28:28;;;;;;;0.50;0.50;;;24.10;56.10;;;;;;5045369;28;20045;-61
2022/09/17 05:30:58;;;;;;;0.50;0.50;;;24.10;56.10;;;;;;5032336;28;20079;-61
2022/09/17 05:33:26;;;;;;;0.60;0.60;;;24.10;56.10;;;;;;5049710;28;20473;-61
2022/09/17 05:35:53;;;;;;;0.60;0.60;;;24.00;56.10;;;;;;5050000;28;20051;-61
2022/09/17 05:38:20;;;;;;;0.82;0.75;;;24.10;56.20;;;;;;5049546;28;20049;-61
2022/09/17 05:40:47;;;;;;;0.60;0.60;;;24.00;56.10;;;;;;5049464;28;20226;-61
2022/09/17 05:43:15;;;;;;;0.50;0.50;;;24.00;56.10;;;;;;5049986;28;20045;-61
2022/09/17 05:45:42;;;;;;;0.73;0.70;;;24.00;56.10;;;;;;5049066;28;20048;-61
2022/09/17 05:48:12;;;;;;;0.60;0.40;;;24.10;56.20;;;;;;5049225;28;20045;-61
2022/09/17 05:50:40;;;;;;;;;;;24.00;56.10;;;;;;5049760;28;20630;-61
2022/09/17 05:53:11;;;;;;;0.68;0.60;;;24.00;56.10;;;;;;5049238;28;20188;-61
2022/09/17 05:55:39;;;;;;;0.40;0.40;;;24.00;56.10;;;;;;5049236;28;20053;-61
2022/09/17 05:58:15;;;;;;;0.57;0.57;;;24.00;56.10;;;;;;5049014;28;20052;-61
2022/09/17 06:00:45;;;;;;;0.30;0.30;;;24.00;56.20;;;;;;5029517;28;20045;-61
2022/09/17 06:03:15;;;;;;;0.40;0.40;;;24.00;56.10;;;;;;5048888;28;20048;-61
2022/09/17 06:05:43;;;;;;;0.50;0.50;;;24.10;56.10;;;;;;5049421;28;20817;-61
2022/09/17 06:08:10;;;;;;;0.73;0.55;;;24.10;56.10;;;;;;5048723;28;20413;-61
2022/09/17 06:10:38;;;;;;;0.38;0.38;;;24.10;56.10;;;;;;5048935;28;20044;-61
2022/09/17 06:13:05;;;;;;;0.57;0.57;;;24.10;56.10;;;;;;5049151;28;20045;-61
2022/09/17 06:15:33;;;;;;;0.45;0.45;;;24.10;56.00;;;;;;5049114;28;20049;-61
2022/09/17 06:18:00;;;;;;;0.55;0.55;;;24.10;56.00;;;;;;5049621;28;20441;-61
2022/09/17 06:20:27;;;;;;;0.50;0.50;;;24.10;56.00;;;;;;5049056;28;20437;-61
2022/09/17 06:22:57;;;;;;;0.45;0.45;;;24.10;55.90;;;;;;5048731;28;20040;-61
2022/09/17 06:25:25;;;;;;;0.50;0.50;;;24.20;55.90;;;;;;5049045;28;20049;-61
2022/09/17 06:27:52;;;;;;;0.38;0.38;;;24.10;55.80;;;;;;5048276;28;20128;-61
2022/09/17 06:30:19;;;;;;;0.68;0.68;;;24.10;55.80;;;;;;5044952;28;20053;-62
2022/09/17 06:32:46;;;;;;;0.60;0.40;;;24.20;55.80;;;;;;5048434;28;20063;-61
2022/09/17 06:35:13;;;;;;;0.45;0.45;;;24.20;55.80;;;;;;5048657;28;20049;-61
2022/09/17 06:37:40;;;;;;;0.55;0.55;;;24.10;55.70;;;;;;5048438;28;20045;-61
2022/09/17 06:40:08;;;;;;;0.50;0.50;;;24.20;55.80;;;;;;5048386;28;20045;-61
2022/09/17 06:42:35;;;;;;;1.67;0.40;;;24.20;55.70;;;;;;5048718;28;20142;-61
2022/09/17 06:45:03;;;;;;;0.38;0.38;;;24.10;55.70;;;;;;5047960;28;20059;-61
2022/09/17 06:47:36;;;;;;;0.22;0.22;;;24.10;55.70;;;;;;5048540;28;20044;-61
2022/09/17 06:50:04;;;;;;;0.55;0.55;;;24.20;55.70;;;;;;5048385;28;20075;-61
2022/09/17 06:52:31;;;;;;;1.23;0.55;;;24.20;55.70;;;;;;5047930;28;20045;-61
2022/09/17 06:54:58;;;;;;;0.25;0.25;;;24.20;55.80;;;;;;5048423;28;20524;-61
2022/09/17 06:57:25;;;;;;;0.50;0.50;;;24.20;55.80;;;;;;5048069;28;20056;-61
2022/09/17 06:59:52;;;;;;;0.35;0.30;;;24.20;55.70;;;;;;5047784;28;20055;-61
2022/09/17 07:02:19;;;;;;;0.50;0.50;;;24.20;55.80;;;;;;5043597;28;20152;-61
2022/09/17 07:04:46;;;;;;;0.38;0.38;;;24.20;55.70;;;;;;5047838;28;20087;-61
2022/09/17 07:07:13;;;;;;;0.90;0.73;;;24.20;55.60;;;;;;5048556;28;20057;-61
2022/09/17 07:09:41;;;;;;;0.50;0.50;;;24.20;55.60;;;;;;5047487;28;20052;-61
2022/09/17 07:12:08;;;;;;;0.30;0.30;;;24.20;55.60;;;;;;5048615;28;20064;-61
2022/09/17 07:14:35;;;;;;;0.65;0.65;;;24.30;55.60;;;;;;5047950;28;20060;-61
2022/09/17 07:17:02;;;;;;;0.40;0.40;;;24.30;55.50;;;;;;5047974;28;20045;-61
2022/09/17 07:19:29;;;;;;;0.40;0.40;;;24.30;55.50;;;;;;5048554;28;20045;-61
2022/09/17 07:21:56;;;;;;;0.50;0.50;;;24.30;55.50;;;;;;5047685;28;20481;-61
2022/09/17 07:24:23;;;;;;;0.50;0.50;;;24.30;55.50;;;;;;5048201;28;20041;-61
2022/09/17 07:26:56;;;;;;;1.95;0.60;;;24.30;55.40;;;;;;5048242;28;20127;-61
2022/09/17 07:29:26;;;;;;;0.30;0.30;;;24.30;55.40;;;;;;5047422;28;20490;-61
2022/09/17 07:31:54;;;;;;;0.38;0.38;;;24.30;55.40;;;;;;5048184;28;20052;-61
2022/09/17 07:34:21;;;;;;;0.52;0.52;;;24.30;55.30;;;;;;5042186;28;20110;-61
2022/09/17 07:36:48;;;;;;;0.38;0.38;;;24.30;55.30;;;;;;5048532;28;20055;-61
2022/09/17 07:39:15;;;;;;;0.40;0.40;;;24.30;55.20;;;;;;5047228;28;20051;-61
2022/09/17 07:41:42;;;;;;;0.30;0.30;;;24.30;55.20;;;;;;5048044;28;20070;-61
2022/09/17 07:44:09;;;;;;;0.30;0.30;;;24.40;55.20;;;;;;5047518;28;20371;-61
2022/09/17 07:46:36;;;;;;;0.57;0.57;;;24.40;55.10;;;;;;5047614;28;20045;-62
2022/09/17 07:49:03;;;;;;;0.50;0.50;;;24.40;55.10;;;;;;5047437;28;20552;-61
2022/09/17 07:51:30;;;;;;;0.45;0.45;;;24.40;55.00;;;;;;5047450;28;20236;-63
2022/09/17 07:53:58;;;;;;;0.30;0.30;;;24.40;55.00;;;;;;5047741;28;20056;-61
2022/09/17 07:56:28;;;;;;;0.50;0.50;;;24.40;55.30;;;;;;5047877;28;20052;-61
2022/09/17 07:58:55;;;;;;;0.50;0.50;;;24.50;55.50;;;;;;5046747;28;20045;-61
2022/09/17 08:01:22;;;;;;;0.80;0.75;;;24.50;54.90;;;;;;5048421;28;20513;-61
2022/09/17 08:03:56;;;;;;;0.52;0.50;;;24.50;54.90;;;;;;5046938;28;20142;-61
2022/09/17 08:06:26;;;;;;;0.40;0.40;;;24.50;54.80;;;;;;5043198;28;20041;-61
2022/09/17 08:08:55;;;;;;;0.40;0.40;;;24.50;54.70;;;;;;5029931;28;20049;-61
2022/09/17 08:11:25;;;;;;;0.40;0.40;;;24.50;54.70;;;;;;5048729;28;20396;-61
2022/09/17 08:14:14;;;;;;;0.40;0.40;;;24.50;54.60;;;;;;5051702;28;20045;-61
2022/09/17 08:16:41;;;;;;;0.40;0.40;;;24.50;54.50;;;;;;5051085;28;20088;-61
2022/09/17 08:19:09;;;;;;;0.40;0.40;;;24.50;54.40;;;;;;5050746;28;20409;-61
2022/09/17 08:21:37;;;;;;;0.55;0.55;;;24.60;54.40;;;;;;5050620;28;20076;-61
2022/09/17 08:24:04;;;;;;;0.90;0.40;;;24.60;54.30;;;;;;5033420;28;20049;-61
2022/09/17 08:26:31;;;;;;;0.40;0.40;;;24.60;54.30;;;;;;5051154;28;20516;-61
2022/09/17 08:28:58;;;;;;;0.75;0.70;;;24.60;54.20;;;;;;5050609;28;20052;-61
2022/09/17 08:31:28;;;;;;;0.57;0.57;;;24.60;54.20;;;;;;5051338;28;20128;-61
2022/09/17 08:33:56;;;;;;;;;;;24.60;54.20;;;;;;5051403;28;20045;-61
2022/09/17 08:36:25;;;;;;;0.77;0.68;;;24.60;54.20;;;;;;5051031;28;20396;-61
2022/09/17 08:38:53;;;;;;;0.55;0.50;;;24.60;54.20;;;;;;5046629;28;20460;-61
2022/09/17 08:41:47;;;;;;;0.47;0.47;;;24.60;54.10;;;;;;5050363;28;20045;-61
2022/09/17 08:44:38;;;;;;;0.60;0.40;;;24.70;54.10;;;;;;5050992;28;20138;-61
2022/09/17 08:47:28;;;;;;;0.52;0.52;;;24.70;54.20;;;;;;5050164;28;20057;-61
2022/09/17 08:49:58;;;;;;;0.63;0.60;;;24.60;54.10;;;;;;5036336;28;20052;-61
2022/09/17 08:52:45;;;;;;;;;;;24.60;54.10;;;;;;5033097;28;20297;-61
2022/09/17 08:55:44;;;;;;;0.30;0.30;;;24.60;54.10;;;;;;5050161;28;19921;-61
2022/09/17 08:58:29;;;;;;;0.40;0.40;;;24.70;54.10;;;;;;5050702;28;20041;-61
2022/09/17 09:01:36;;;;;;;1.40;0.45;;;24.70;54.10;;;;;;5032399;28;20489;-61
2022/09/17 09:04:28;;;;;;;0.50;0.50;;;24.70;54.10;;;;;;5021593;28;20052;-61
2022/09/17 09:07:05;;;;;;;0.50;0.50;;;24.70;54.00;;;;;;5050596;28;20049;-61
2022/09/17 09:09:40;;;;;;;0.57;0.57;;;24.70;54.00;;;;;;5048477;28;20056;-61
2022/09/17 09:12:23;;;;;;;0.50;0.47;;;24.70;54.00;;;;;;5032007;28;20052;-61
2022/09/17 09:14:59;;;;;;;0.40;0.40;;;24.70;53.90;;;;;;5032621;28;20040;-61
2022/09/17 09:17:43;;;;;;;0.60;0.50;;;24.70;53.90;;;;;;5050040;28;20433;-61
2022/09/17 09:20:22;;;;;;;1.10;0.60;;;24.70;53.90;;;;;;5049676;28;20044;-61
2022/09/17 09:22:51;;;;;;;0.43;0.43;;;24.70;53.90;;;;;;5032590;28;20053;-61
2022/09/17 09:25:23;;;;;;;1.40;0.50;;;24.70;53.80;;;;;;5050020;28;20048;-61
2022/09/17 09:28:26;;;;;;;0.60;0.55;;;24.70;53.80;;;;;;5050205;28;20045;-61
2022/09/17 09:31:25;;;;;;;0.30;0.30;;;24.70;53.80;;;;;;5049562;28;20055;-61
2022/09/17 09:33:52;;;;;;;0.90;0.90;;;24.70;53.80;;;;;;5049826;28;20049;-61
2022/09/17 09:36:20;;;;;;;0.47;0.47;;;24.70;53.70;;;;;;5049224;28;20048;-61
2022/09/17 09:39:00;;;;;;;0.40;0.40;;;24.70;53.70;;;;;;5050197;28;20037;-62
2022/09/17 09:41:42;;;;;;;0.50;0.50;;;24.70;53.60;;;;;;5049343;28;20567;-61
2022/09/17 09:44:11;;;;;;;0.50;0.50;;;24.80;53.70;;;;;;5045381;28;20049;-61
2022/09/17 09:47:17;;;;;;;0.40;0.40;;;24.80;53.70;;;;;;5049449;28;20057;-61
2022/09/17 09:50:24;;;;;;;0.40;0.40;;;24.80;53.60;;;;;;5049468;28;20505;-61
2022/09/17 09:53:41;;;;;;;0.60;0.60;;;24.70;53.60;;;;;;5049432;28;20131;-61
2022/09/17 09:56:36;;;;;;;0.50;0.50;;;24.80;53.70;;;;;;5049521;28;20045;-61
2022/09/17 09:59:07;;;;;;;0.47;0.47;;;24.70;53.60;;;;;;5048823;28;20493;-61
2022/09/17 10:01:39;;;;;;;1.23;0.50;;;24.70;53.60;;;;;;5048588;28;20051;-61
2022/09/17 10:04:26;;;;;;;0.40;0.40;;;24.70;53.60;;;;;;5049429;28;20056;-61
2022/09/17 10:06:59;;;;;;;0.50;0.50;;;24.70;53.60;;;;;;5031380;28;20405;-62
2022/09/17 10:09:28;;;;;;;0.65;0.32;;;24.70;53.60;;;;;;5031933;28;20522;-61
2022/09/17 10:12:14;;;;;;;0.63;0.63;;;24.70;53.60;;;;;;5048900;28;20056;-62
2022/09/17 10:14:45;;;;;;;0.47;0.40;;;24.70;53.60;;;;;;5044812;28;20040;-61
2022/09/17 10:17:21;;;;;;;0.82;0.60;;;24.70;53.70;;;;;;5048330;28;20180;-61
2022/09/17 10:20:13;;;;;;;0.70;0.70;;;24.70;53.60;;;;;;5031723;28;20505;-61
2022/09/17 10:22:47;;;;;;;0.40;0.40;;;24.70;53.70;;;;;;5048810;28;20673;-61
2022/09/17 10:25:31;;;;;;;0.40;0.40;;;24.70;53.70;;;;;;5049152;28;20478;-61
2022/09/17 10:28:01;;;;;;;0.57;0.50;;;24.70;53.70;;;;;;5048808;28;20497;-62
2022/09/17 10:30:28;;;;;;;0.40;0.40;;;24.70;53.70;;;;;;5031741;28;20445;-61
2022/09/17 10:33:18;;;;;;;0.38;0.38;;;24.70;53.70;;;;;;5048518;28;20044;-61
2022/09/17 10:36:07;;;;;;;0.43;0.43;;;24.70;53.70;;;;;;5047450;28;20132;-61
2022/09/17 10:38:45;;;;;;;0.50;0.45;;;24.70;53.70;;;;;;5048379;28;20049;-61
2022/09/17 10:41:20;;;;;;;0.52;0.52;;;24.70;53.60;;;;;;5048276;28;20559;-62
2022/09/17 10:43:51;;;;;;;0.52;0.52;;;24.70;53.60;;;;;;5031170;28;20082;-61
2022/09/17 10:46:25;;;;;;;;;;;24.70;53.60;;;;;;5048387;28;20037;-61
2022/09/17 10:49:10;;;;;;;0.65;0.65;;;24.70;53.60;;;;;;5043983;28;19999;-61
2022/09/17 10:51:38;;;;;;;0.52;0.52;;;24.70;53.60;;;;;;5048855;28;20048;-61
2022/09/17 10:54:23;;;;;;;1.17;0.40;;;24.80;53.60;;;;;;5047924;28;20052;-61
2022/09/17 10:56:56;;;;;;;0.60;0.40;;;24.80;53.50;;;;;;5048603;28;20076;-61
2022/09/17 10:59:57;;;;;;;0.47;0.47;;;24.80;53.50;;;;;;5047915;28;20574;-61
2022/09/17 11:03:03;;;;;;;0.75;0.75;;;24.80;53.40;;;;;;5048495;28;20473;-61
2022/09/17 11:06:10;;;;;;;0.50;0.50;;;24.80;53.50;;;;;;5048503;28;20048;-61
2022/09/17 11:09:08;;;;;;;0.60;0.60;;;24.80;53.40;;;;;;5033837;28;20567;-61
2022/09/17 11:12:14;;;;;;;0.47;0.30;;;24.80;53.50;;;;;;5033196;28;20579;-61
2022/09/17 11:15:04;;;;;;;0.40;0.40;;;24.80;53.40;;;;;;5047975;28;20055;-61
2022/09/17 11:18:00;;;;;;;0.80;0.45;;;24.80;53.30;;;;;;5047908;28;20339;-61
2022/09/17 11:20:57;;;;;;;0.30;0.30;;;24.80;53.20;;;;;;5043585;28;20268;-61
2022/09/17 11:23:50;;;;;;;0.30;0.30;;;24.90;53.20;;;;;;5033834;28;20044;-61
2022/09/17 11:26:40;;;;;;;0.40;0.40;;;24.90;53.10;;;;;;5048236;28;20080;-61
2022/09/17 11:29:35;;;;;;;0.50;0.50;;;24.90;53.10;;;;;;5048313;28;20052;-62
2022/09/17 11:32:33;;;;;;;0.40;0.40;;;24.90;53.00;;;;;;5030148;28;20045;-61
2022/09/17 11:35:20;;;;;;;0.40;0.40;;;24.90;52.90;;;;;;5047494;28;20056;-61
2022/09/17 11:38:06;;;;;;;0.50;0.50;;;25.00;52.90;;;;;;5048104;28;20067;-61
2022/09/17 11:40:45;;;;;;;0.40;0.40;;;25.00;52.90;;;;;;5047774;28;20501;-61
2022/09/17 11:43:32;;;;;;;0.30;0.30;;;25.00;52.80;;;;;;5045836;28;20049;-62
2022/09/17 11:46:21;;;;;;;0.30;0.30;;;25.00;52.70;;;;;;5047745;28;20049;-61
2022/09/17 11:49:17;;;;;;;0.50;0.50;;;25.00;52.60;;;;;;5050529;28;20559;-61
2022/09/17 11:51:51;;;;;;;0.30;0.30;;;25.10;52.60;;;;;;5046766;28;20049;-61
2022/09/17 11:54:30;;;;;;;0.50;0.50;;;25.10;52.60;;;;;;5033707;28;20047;-61
2022/09/17 11:57:12;;;;;;;0.40;0.40;;;25.10;52.50;;;;;;5033367;28;20057;-61
2022/09/17 11:59:56;;;;;;;0.45;0.45;;;25.10;52.50;;;;;;5035198;28;20053;-61
2022/09/17 12:02:52;;;;;;;1.17;0.40;;;25.10;52.50;;;;;;5051373;28;20049;-61
2022/09/17 12:05:30;;;;;;;0.47;0.25;;;25.10;52.50;;;;;;5051382;28;20099;-61
2022/09/17 12:08:19;;;;;;;0.45;0.45;;;25.10;52.60;;;;;;5051665;28;20509;-61
2022/09/17 12:11:02;;;;;;;0.55;0.35;;;25.10;52.60;;;;;;5051349;28;20402;-61
2022/09/17 12:13:48;;;;;;;0.50;0.40;;;25.10;52.60;;;;;;5051095;28;20044;-61
2022/09/17 12:16:31;;;;;;;0.45;0.40;;;25.10;52.60;;;;;;5050556;28;20056;-62
2022/09/17 12:19:13;;;;;;;0.22;0.22;;;25.10;52.60;;;;;;5050914;28;20052;-61
2022/09/17 12:21:44;;;;;;;0.38;0.38;;;25.00;52.50;;;;;;5050928;28;20064;-61
2022/09/17 12:24:22;;;;;;;0.32;0.32;;;25.00;52.60;;;;;;5048817;28;20045;-61
2022/09/17 12:27:16;;;;;;;0.35;0.35;;;25.10;52.60;;;;;;5032499;28;20060;-61
2022/09/17 12:30:08;;;;;;;0.50;0.50;;;25.10;52.60;;;;;;5050737;28;20048;-61
2022/09/17 12:33:00;;;;;;;0.40;0.40;;;25.10;52.60;;;;;;5036385;28;20068;-61
2022/09/17 12:36:06;;;;;;;0.30;0.30;;;25.00;52.50;;;;;;5050041;28;20087;-62
2022/09/17 12:39:01;;;;;;;0.30;0.30;;;25.10;52.60;;;;;;5036117;28;20045;-61
2022/09/17 12:41:55;;;;;;;0.30;0.30;;;25.00;52.50;;;;;;5050289;28;20087;-61
2022/09/17 12:44:57;;;;;;;0.47;0.47;;;25.00;52.60;;;;;;5032805;28;20056;-62
2022/09/17 12:48:00;;;;;;;1.13;0.45;;;25.00;52.60;;;;;;5037568;28;20049;-62
2022/09/17 12:50:49;;;;;;;0.95;0.40;;;25.00;52.60;;;;;;5038791;28;20053;-61
2022/09/17 12:53:42;;;;;;;0.47;0.47;;;25.00;52.70;;;;;;5050662;28;20074;-61
2022/09/17 12:56:31;;;;;;;0.50;0.50;;;24.90;52.70;;;;;;5048437;28;20072;-61
2022/09/17 12:59:18;;;;;;;0.25;0.25;;;24.90;52.80;;;;;;5048792;28;20072;-61
2022/09/17 13:01:57;;;;;;;0.52;0.30;;;24.90;52.90;;;;;;5033830;28;20107;-61
2022/09/17 13:04:55;;;;;;;0.75;0.35;;;24.90;52.90;;;;;;5049319;28;20456;-61
2022/09/17 13:08:07;;;;;;;0.50;0.40;;;24.90;52.90;;;;;;5037008;28;20045;-62
2022/09/17 13:11:13;;;;;;;0.50;0.50;;;24.80;53.00;;;;;;5038376;28;20067;-61
2022/09/17 13:14:02;;;;;;;0.30;0.30;;;24.80;53.00;;;;;;5037368;28;20059;-62
2022/09/17 13:17:05;;;;;;;0.43;0.40;;;24.80;53.10;;;;;;5049524;28;20501;-61
2022/09/17 13:19:46;;;;;;;0.52;0.30;;;24.80;53.10;;;;;;5037896;28;20052;-62
2022/09/17 13:22:18;;;;;;;0.57;0.50;;;24.80;53.20;;;;;;5050353;28;20255;-61
2022/09/17 13:24:59;;;;;;;0.40;0.40;;;24.70;53.10;;;;;;5049764;28;20048;-61
2022/09/17 13:27:27;;;;;;;0.85;0.45;;;24.70;53.20;;;;;;5032420;28;20056;-61
2022/09/17 13:29:57;;;;;;;0.40;0.40;;;24.70;53.30;;;;;;5044765;28;20040;-61
2022/09/17 13:32:46;;;;;;;0.35;0.28;;;24.70;53.30;;;;;;5050119;28;20049;-61
2022/09/17 13:35:45;;;;;;;0.38;0.38;;;24.70;53.30;;;;;;5034568;28;20045;-61
2022/09/17 13:38:12;;;;;;;0.30;0.30;;;24.70;53.80;;;;;;5036937;28;20045;-61